createdAt,value
2023-02-06T00:01:00.930Z,2.60
2023-02-06T00:04:02.776Z,3.20
2023-02-06T00:07:04.520Z,3.20
2023-02-06T00:10:06.700Z,3.30
2023-02-06T00:13:08.536Z,3.10
2023-02-06T00:16:25.406Z,4.00
2023-02-06T00:19:27.131Z,3.30
2023-02-06T00:22:28.792Z,3.70
2023-02-06T00:25:30.457Z,3.20
2023-02-06T00:28:32.304Z,3.20
2023-02-06T00:31:34.040Z,3.80
2023-02-06T00:34:35.719Z,3.70
2023-02-06T00:37:37.402Z,3.50
2023-02-06T00:40:39.368Z,4.30
2023-02-06T00:43:42.162Z,3.20
2023-02-06T00:46:43.951Z,3.30
2023-02-06T00:49:45.778Z,2.80
2023-02-06T00:52:47.544Z,3.70
2023-02-06T00:55:49.305Z,2.70
2023-02-06T00:58:50.988Z,2.60
2023-02-06T01:01:52.761Z,2.20
2023-02-06T01:04:55.126Z,2.60
2023-02-06T01:07:56.815Z,2.80
2023-02-06T01:10:59.801Z,2.60
2023-02-06T01:14:02.011Z,2.90
2023-02-06T01:17:03.902Z,2.50
2023-02-06T01:20:08.515Z,2.20
2023-02-06T01:23:10.893Z,2.70
2023-02-06T01:26:14.700Z,2.40
2023-02-06T01:29:16.671Z,2.60
2023-02-06T01:32:18.426Z,2.20
2023-02-06T01:35:20.393Z,2.00
2023-02-06T01:38:22.131Z,1.90
2023-02-06T01:41:24.353Z,2.30
2023-02-06T01:44:26.600Z,2.60
2023-02-06T01:47:29.035Z,2.20
2023-02-06T01:50:32.733Z,2.40
2023-02-06T01:53:35.265Z,1.80
2023-02-06T01:56:41.306Z,2.40
2023-02-06T01:59:47.395Z,2.20
2023-02-06T02:02:49.429Z,2.10
2023-02-06T02:05:51.769Z,2.00
2023-02-06T02:08:56.573Z,2.20
2023-02-06T02:11:59.870Z,2.10
2023-02-06T02:15:01.633Z,3.60
2023-02-06T02:18:11.593Z,1.70
2023-02-06T02:21:51.075Z,2.30
2023-02-06T02:24:58.672Z,2.30
2023-02-06T02:28:30.605Z,2.00
2023-02-06T02:32:03.414Z,1.90
2023-02-06T02:35:43.961Z,2.50
2023-02-06T02:39:10.731Z,2.30
2023-02-06T02:42:21.171Z,2.40
2023-02-06T02:45:33.165Z,2.40
2023-02-06T02:48:39.757Z,1.90
2023-02-06T02:51:42.436Z,2.30
2023-02-06T02:54:44.095Z,1.70
2023-02-06T02:57:47.495Z,2.20
2023-02-06T03:00:53.641Z,2.20
2023-02-06T03:03:59.526Z,2.10
2023-02-06T03:07:19.973Z,2.10
2023-02-06T03:10:41.954Z,1.80
2023-02-06T03:13:52.218Z,1.50
2023-02-06T03:17:05.786Z,2.10
2023-02-06T03:20:09.476Z,1.80
2023-02-06T03:23:24.344Z,2.80
2023-02-06T03:26:27.718Z,2.20
2023-02-06T03:29:32.154Z,1.90
2023-02-06T03:32:36.782Z,1.80
2023-02-06T03:35:38.988Z,1.60
2023-02-06T03:38:40.930Z,1.80
2023-02-06T03:41:44.344Z,2.20
2023-02-06T03:44:51.633Z,3.10
2023-02-06T03:47:54.733Z,2.00
2023-02-06T03:50:59.751Z,2.90
2023-02-06T03:54:03.480Z,2.30
2023-02-06T03:57:06.702Z,3.10
2023-02-06T04:00:09.565Z,3.40
2023-02-06T04:03:14.992Z,3.80
2023-02-06T04:06:16.752Z,4.10
2023-02-06T04:09:18.427Z,3.90
2023-02-06T04:12:21.713Z,3.20
2023-02-06T04:15:23.329Z,1.80
2023-02-06T04:18:25.032Z,1.70
2023-02-06T04:21:26.688Z,2.10
2023-02-06T04:24:30.798Z,1.80
2023-02-06T04:27:32.979Z,2.10
2023-02-06T04:30:34.813Z,2.60
2023-02-06T04:33:36.502Z,2.30
2023-02-06T04:36:38.162Z,2.60
2023-02-06T04:39:39.865Z,2.40
2023-02-06T04:42:41.517Z,2.20
2023-02-06T04:45:43.284Z,2.10
2023-02-06T04:48:45.008Z,2.30
2023-02-06T04:51:46.669Z,2.50
2023-02-06T04:54:48.414Z,2.10
2023-02-06T04:57:50.068Z,2.90
2023-02-06T05:00:51.878Z,3.50
2023-02-06T05:03:53.533Z,3.30
2023-02-06T05:06:55.269Z,2.60
2023-02-06T05:09:56.923Z,2.90
2023-02-06T05:12:58.628Z,2.90
2023-02-06T05:16:08.446Z,2.70
2023-02-06T05:19:10.808Z,2.40
2023-02-06T05:22:12.709Z,2.80
2023-02-06T05:25:23.036Z,2.80
2023-02-06T05:28:25.204Z,3.60
2023-02-06T05:31:27.290Z,3.10
2023-02-06T05:34:29.145Z,3.30
2023-02-06T05:37:30.901Z,3.80
2023-02-06T05:40:32.894Z,4.80
2023-02-06T05:43:35.048Z,5.30
2023-02-06T05:46:37.721Z,4.00
2023-02-06T05:49:39.474Z,3.80
2023-02-06T05:52:41.257Z,3.40
2023-02-06T05:55:43.032Z,2.90
2023-02-06T05:58:44.636Z,2.90
2023-02-06T06:01:46.343Z,2.70
2023-02-06T06:04:48.126Z,3.70
2023-02-06T06:07:49.964Z,2.40
2023-02-06T06:10:52.375Z,2.80
2023-02-06T06:13:54.052Z,3.40
2023-02-06T06:16:55.665Z,3.10
2023-02-06T06:19:57.728Z,3.00
2023-02-06T06:22:59.366Z,2.90
2023-02-06T06:26:00.996Z,3.00
2023-02-06T06:29:03.172Z,3.90
2023-02-06T06:32:05.351Z,3.80
2023-02-06T06:35:07.671Z,3.10
2023-02-06T06:38:09.432Z,3.90
2023-02-06T06:41:11.131Z,3.70
2023-02-06T06:44:12.848Z,3.40
2023-02-06T06:47:14.611Z,3.20
2023-02-06T06:50:16.419Z,3.90
2023-02-06T06:53:18.241Z,3.50
2023-02-06T06:56:19.833Z,3.30
2023-02-06T06:59:21.488Z,3.00
2023-02-06T07:02:23.132Z,3.20
2023-02-06T07:05:25.080Z,5.00
2023-02-06T07:08:30.121Z,5.00
2023-02-06T07:11:31.879Z,4.70
2023-02-06T07:14:33.542Z,4.50
2023-02-06T07:17:35.405Z,5.80
2023-02-06T07:20:38.200Z,4.90
2023-02-06T07:23:39.859Z,4.00
2023-02-06T07:26:41.666Z,5.10
2023-02-06T07:29:43.796Z,4.90
2023-02-06T07:32:45.549Z,5.60
2023-02-06T07:35:47.480Z,5.00
2023-02-06T07:38:49.171Z,6.20
2023-02-06T07:41:51.139Z,6.00
2023-02-06T07:44:53.896Z,5.10
2023-02-06T07:47:55.689Z,6.10
2023-02-06T07:51:03.101Z,5.60
2023-02-06T07:54:04.844Z,7.10
2023-02-06T07:57:06.503Z,7.20
2023-02-06T08:00:09.396Z,6.60
2023-02-06T08:03:16.787Z,7.10
2023-02-06T08:06:19.269Z,7.50
2023-02-06T08:09:21.127Z,8.60
2023-02-06T08:12:22.992Z,7.70
2023-02-06T08:15:25.573Z,7.90
2023-02-06T08:18:27.547Z,8.30
2023-02-06T08:21:29.187Z,7.70
2023-02-06T08:24:31.277Z,7.20
2023-02-06T08:27:33.029Z,7.20
2023-02-06T08:30:34.846Z,6.90
2023-02-06T08:33:36.867Z,7.10
2023-02-06T08:36:38.931Z,6.70
2023-02-06T08:39:40.584Z,6.20
2023-02-06T08:42:42.352Z,8.10
2023-02-06T08:45:51.160Z,7.40
2023-02-06T08:48:57.560Z,6.30
2023-02-06T08:51:59.242Z,6.20
2023-02-06T08:55:00.902Z,5.80
2023-02-06T08:58:02.888Z,5.60
2023-02-06T09:01:09.184Z,6.50
2023-02-06T09:04:12.872Z,5.50
2023-02-06T09:07:17.169Z,5.30
2023-02-06T09:13:31.218Z,5.70
2023-02-06T09:16:33.783Z,6.00
2023-02-06T09:19:35.444Z,4.40
2023-02-06T09:22:37.140Z,4.70
2023-02-06T09:25:39.375Z,5.30
2023-02-06T09:28:41.239Z,4.70
2023-02-06T09:31:43.522Z,4.70
2023-02-06T09:34:45.378Z,4.00
2023-02-06T09:37:48.094Z,4.60
2023-02-06T09:40:50.034Z,4.20
2023-02-06T09:43:59.823Z,4.70
2023-02-06T09:47:12.697Z,5.30
2023-02-06T09:50:19.731Z,4.70
2023-02-06T09:53:30.363Z,4.20
2023-02-06T09:56:39.992Z,3.40
2023-02-06T09:59:52.538Z,3.90
2023-02-06T10:03:32.061Z,3.40
2023-02-06T10:06:43.757Z,3.80
2023-02-06T10:09:52.061Z,4.30
2023-02-06T10:13:07.857Z,4.40
2023-02-06T10:16:44.576Z,3.50
2023-02-06T10:19:58.315Z,3.50
2023-02-06T10:23:06.104Z,4.00
2023-02-06T10:26:12.585Z,4.00
2023-02-06T10:29:27.700Z,3.70
2023-02-06T10:32:51.992Z,2.80
2023-02-06T10:36:04.418Z,3.00
2023-02-06T10:39:18.384Z,3.50
2023-02-06T10:42:44.243Z,3.50
2023-02-06T10:45:52.242Z,4.00
2023-02-06T10:49:11.920Z,4.20
2023-02-06T10:52:23.931Z,4.40
2023-02-06T10:55:38.583Z,9.00
2023-02-06T10:58:45.667Z,4.10
2023-02-06T11:01:48.293Z,3.20
2023-02-06T11:04:54.348Z,3.20
2023-02-06T11:08:21.692Z,4.00
2023-02-06T11:11:30.099Z,3.30
2023-02-06T11:14:37.790Z,3.00
2023-02-06T11:17:39.487Z,4.30
2023-02-06T11:20:43.063Z,3.90
2023-02-06T11:23:44.711Z,4.20
2023-02-06T11:26:57.169Z,4.40
2023-02-06T11:30:08.517Z,5.30
2023-02-06T11:33:22.893Z,4.00
2023-02-06T11:36:24.520Z,3.90
2023-02-06T11:39:36.641Z,4.20
2023-02-06T11:42:38.232Z,3.80
2023-02-06T11:45:41.218Z,3.90
2023-02-06T11:49:01.291Z,4.10
2023-02-06T11:52:04.162Z,4.70
2023-02-06T11:55:06.332Z,5.90
2023-02-06T11:58:14.050Z,5.00
2023-02-06T12:01:21.838Z,5.70
2023-02-06T12:04:30.893Z,4.90
2023-02-06T12:07:38.677Z,3.90
2023-02-06T12:10:48.501Z,4.10
2023-02-06T12:14:00.844Z,4.00
2023-02-06T12:17:03.626Z,3.60
2023-02-06T12:20:15.628Z,4.50
2023-02-06T12:23:28.257Z,4.40
2023-02-06T12:26:32.381Z,3.10
2023-02-06T12:29:42.041Z,3.60
2023-02-06T12:32:47.097Z,4.30
2023-02-06T12:35:53.912Z,4.50
2023-02-06T12:39:03.370Z,4.50
2023-02-06T12:42:41.791Z,4.70
2023-02-06T12:45:49.775Z,5.00
2023-02-06T12:48:57.274Z,6.10
2023-02-06T12:52:05.620Z,4.90
2023-02-06T12:55:24.673Z,4.10
2023-02-06T12:58:46.115Z,4.90
2023-02-06T13:02:05.483Z,5.10
2023-02-06T13:05:36.301Z,4.40
2023-02-06T13:08:45.245Z,4.00
2023-02-06T13:11:47.180Z,3.90
2023-02-06T13:15:05.892Z,3.50
2023-02-06T13:18:41.966Z,3.60
2023-02-06T13:21:51.556Z,4.20
2023-02-06T13:24:53.418Z,4.10
2023-02-06T13:28:22.435Z,4.60
2023-02-06T13:31:26.482Z,3.90
2023-02-06T13:34:28.637Z,3.60
2023-02-06T13:37:39.102Z,3.50
2023-02-06T13:40:40.741Z,4.30
2023-02-06T13:43:44.833Z,3.50
2023-02-06T13:47:14.703Z,3.30
2023-02-06T13:50:23.053Z,3.70
2023-02-06T13:53:25.098Z,3.70
2023-02-06T13:56:45.585Z,3.70
2023-02-06T13:59:51.312Z,3.90
2023-02-06T14:03:04.166Z,4.00
2023-02-06T14:06:37.261Z,3.90
2023-02-06T14:09:51.586Z,3.80
2023-02-06T14:12:56.320Z,3.60
2023-02-06T14:16:22.722Z,3.50
2023-02-06T14:19:33.990Z,3.30
2023-02-06T14:22:48.381Z,3.10
2023-02-06T14:26:05.463Z,4.20
2023-02-06T14:29:18.371Z,4.00
2023-02-06T14:32:26.177Z,3.60
2023-02-06T14:35:41.216Z,5.80
2023-02-06T14:38:53.429Z,5.50
2023-02-06T14:41:55.273Z,4.50
2023-02-06T14:45:03.969Z,4.60
2023-02-06T14:48:13.502Z,4.20
2023-02-06T14:51:21.359Z,4.50
2023-02-06T14:54:41.847Z,4.20
2023-02-06T14:57:45.540Z,5.10
2023-02-06T15:00:47.628Z,4.50
2023-02-06T15:03:52.567Z,4.50
2023-02-06T15:07:03.243Z,4.70
2023-02-06T15:10:11.686Z,4.70
2023-02-06T15:13:24.248Z,5.40
2023-02-06T15:16:26.094Z,5.50
2023-02-06T15:19:33.301Z,5.00
2023-02-06T15:22:35.565Z,5.50
2023-02-06T15:25:42.466Z,6.00
2023-02-06T15:28:44.359Z,6.10
2023-02-06T15:31:55.233Z,5.10
2023-02-06T15:34:56.964Z,5.40
2023-02-06T15:38:22.648Z,6.10
2023-02-06T15:41:24.493Z,4.90
2023-02-06T15:44:34.221Z,5.40
2023-02-06T15:47:37.192Z,5.40
2023-02-06T15:50:39.208Z,5.50
2023-02-06T15:53:43.596Z,5.30
2023-02-06T15:56:54.886Z,6.00
2023-02-06T15:59:59.491Z,6.30
2023-02-06T16:03:07.913Z,5.00
2023-02-06T16:06:16.781Z,6.00
2023-02-06T16:09:21.656Z,6.00
2023-02-06T16:12:23.807Z,6.00
2023-02-06T16:15:35.093Z,6.30
2023-02-06T16:18:41.125Z,6.00
2023-02-06T16:21:43.744Z,6.30
2023-02-06T16:24:46.349Z,5.70
2023-02-06T16:27:48.906Z,6.00
2023-02-06T16:30:56.101Z,6.60
2023-02-06T16:34:05.087Z,6.20
2023-02-06T16:37:12.979Z,5.20
2023-02-06T16:40:14.656Z,6.20
2023-02-06T16:43:16.506Z,6.20
2023-02-06T16:46:18.362Z,6.00
2023-02-06T16:49:21.895Z,6.20
2023-02-06T16:52:29.240Z,6.40
2023-02-06T16:55:30.901Z,5.60
2023-02-06T16:58:35.031Z,6.70
2023-02-06T17:01:36.905Z,6.40
2023-02-06T17:04:38.851Z,6.50
2023-02-06T17:07:41.103Z,6.10
2023-02-06T17:10:42.906Z,6.50
2023-02-06T17:13:44.773Z,6.10
2023-02-06T17:16:46.481Z,6.30
2023-02-06T17:19:48.814Z,6.60
2023-02-06T17:22:51.903Z,6.20
2023-02-06T17:25:53.750Z,5.90
2023-02-06T17:28:55.438Z,6.10
2023-02-06T17:31:58.066Z,6.80
2023-02-06T17:35:01.712Z,6.90
2023-02-06T17:38:05.102Z,6.40
2023-02-06T17:41:06.764Z,6.50
2023-02-06T17:44:08.477Z,6.40
2023-02-06T17:47:10.246Z,6.70
2023-02-06T17:50:17.400Z,6.70
2023-02-06T17:53:19.148Z,7.80
2023-02-06T17:56:21.120Z,7.10
2023-02-06T17:59:22.819Z,7.10
2023-02-06T18:02:24.515Z,8.70
2023-02-06T18:05:26.898Z,7.20
2023-02-06T18:08:29.615Z,7.60
2023-02-06T18:11:31.633Z,7.70
2023-02-06T18:14:35.423Z,7.60
2023-02-06T18:17:37.063Z,7.10
2023-02-06T18:20:39.406Z,8.60
2023-02-06T18:23:41.734Z,7.80
2023-02-06T18:26:43.424Z,7.70
2023-02-06T18:29:50.079Z,6.20
2023-02-06T18:32:52.272Z,7.00
2023-02-06T18:35:53.931Z,8.70
2023-02-06T18:38:56.817Z,7.00
2023-02-06T18:42:16.992Z,7.10
2023-02-06T18:45:20.317Z,6.80
2023-02-06T18:48:22.069Z,7.10
2023-02-06T18:51:23.954Z,7.20
2023-02-06T18:54:25.661Z,6.40
2023-02-06T18:57:27.434Z,7.00
2023-02-06T19:00:29.185Z,7.20
2023-02-06T19:03:30.846Z,8.40
2023-02-06T19:06:36.520Z,8.80
2023-02-06T19:09:38.712Z,7.40
2023-02-06T19:12:40.446Z,7.30
2023-02-06T19:15:42.135Z,7.60
2023-02-06T19:18:45.854Z,8.60
2023-02-06T19:21:47.590Z,7.80
2023-02-06T19:24:51.224Z,8.60
2023-02-06T19:27:52.932Z,9.90
2023-02-06T19:30:54.685Z,7.70
2023-02-06T19:33:59.017Z,8.20
2023-02-06T19:37:00.635Z,8.10
2023-02-06T19:40:02.437Z,8.80
2023-02-06T19:43:04.269Z,8.30
2023-02-06T19:46:08.723Z,8.10
2023-02-06T19:49:11.112Z,9.80
2023-02-06T19:52:14.503Z,9.50
2023-02-06T19:55:16.181Z,9.00
2023-02-06T19:58:17.877Z,9.50
2023-02-06T20:01:19.631Z,9.00
2023-02-06T20:04:23.759Z,8.70
2023-02-06T20:07:25.435Z,8.80
2023-02-06T20:10:27.262Z,8.60
2023-02-06T20:13:29.121Z,9.00
2023-02-06T20:16:33.986Z,9.10
2023-02-06T20:22:38.598Z,8.30
2023-02-06T20:25:40.338Z,8.80
2023-02-06T20:28:42.041Z,9.30
2023-02-06T20:31:43.876Z,9.80
2023-02-06T20:34:46.542Z,8.80
2023-02-06T20:37:48.208Z,8.90
2023-02-06T20:40:51.146Z,8.80
2023-02-06T20:43:53.030Z,8.30
2023-02-06T20:46:55.248Z,9.30
2023-02-06T20:50:00.972Z,8.40
2023-02-06T20:53:02.801Z,8.60
2023-02-06T20:56:05.114Z,9.10
2023-02-06T20:59:07.759Z,9.10
2023-02-06T21:02:11.025Z,8.90
2023-02-06T21:05:12.730Z,9.00
2023-02-06T21:08:14.548Z,9.70
2023-02-06T21:11:17.968Z,9.50
2023-02-06T21:14:20.161Z,9.00
2023-02-06T21:17:22.520Z,8.40
2023-02-06T21:20:24.834Z,8.90
2023-02-06T21:23:26.564Z,10.00
2023-02-06T21:26:29.023Z,8.50
2023-02-06T21:29:30.699Z,8.60
2023-02-06T21:32:32.922Z,9.00
2023-02-06T21:35:34.662Z,9.40
2023-02-06T21:38:36.394Z,9.50
2023-02-06T21:41:38.399Z,9.20
2023-02-06T21:44:41.221Z,10.10
2023-02-06T21:47:42.941Z,10.90
2023-02-06T21:50:44.994Z,11.30
2023-02-06T21:53:46.714Z,13.10
2023-02-06T21:56:49.111Z,10.30
2023-02-06T21:59:50.744Z,10.00
2023-02-06T22:02:52.447Z,8.40
2023-02-06T22:05:54.171Z,8.60
2023-02-06T22:08:57.225Z,9.10
2023-02-06T22:11:59.053Z,8.70
2023-02-06T22:15:00.766Z,8.50
2023-02-06T22:18:02.440Z,8.00
2023-02-06T22:21:06.109Z,8.70
2023-02-06T22:24:08.664Z,8.80
2023-02-06T22:27:11.626Z,7.40
2023-02-06T22:30:13.721Z,7.60
2023-02-06T22:33:15.336Z,8.50
2023-02-06T22:36:24.013Z,6.80
2023-02-06T22:39:26.133Z,6.30
2023-02-06T22:42:27.729Z,6.70
2023-02-06T22:45:29.677Z,7.80
2023-02-06T22:48:31.490Z,7.90
2023-02-06T22:51:33.622Z,7.70
2023-02-06T22:54:35.300Z,6.60
2023-02-06T22:57:37.319Z,7.40
2023-02-06T23:00:38.882Z,7.10
2023-02-06T23:03:40.606Z,7.60
2023-02-06T23:06:43.267Z,7.10
2023-02-06T23:09:44.862Z,7.50
2023-02-06T23:12:46.558Z,8.20
2023-02-06T23:15:48.266Z,7.50
2023-02-06T23:18:49.906Z,7.10
2023-02-06T23:21:52.094Z,7.50
2023-02-06T23:24:53.723Z,8.40
2023-02-06T23:27:55.356Z,7.20
2023-02-06T23:30:57.073Z,7.90
2023-02-06T23:33:58.772Z,9.00
2023-02-06T23:37:01.390Z,9.00
2023-02-06T23:40:05.289Z,9.40
2023-02-06T23:43:07.732Z,8.30
2023-02-06T23:46:12.236Z,8.30
2023-02-06T23:49:14.111Z,8.40
2023-02-06T23:52:15.810Z,7.40
2023-02-06T23:55:18.392Z,9.50
2023-02-06T23:58:20.094Z,8.00
